NEW EXCHEQUER-LK MCCLURE (EXC)

Elevation: 879' · MERCED R basin · Operator: Merced Irrigation District

Provisional data, subject to change.
Query executed Tuesday at 18:22:53   clock

Select a sensor type for a plot of data.
Note: Reservoir Flows are daily averages.

Earlier

Date RES ELE    STORAGE    RES CHG    TOC STO    ABV TOC    OUTFLOW    INFLOW    PPT INC    TEMP MN    TEMP MX    TEMP AV    EVP PAN   
 FEET   AF   AF   AF   AF   CFS   CFS   INCHES   DEG F   DEG F   DEG F   INCHES  
04/25/2016 763.26 465627 1907 782053 -316426 748 2398 0.00 44 65 55 0.23
04/26/2016 763.93 468251 1448 726983 -315206 693 2016 0.00 47 68 58 0.19
04/27/2016 764.59 470844 1452 728512 -314042 718 2025 0.01 51 65 56 0.13
04/28/2016 765.25 473450 1737 729800 -256350 560 1874 0.00 46 69 58 0.11
04/29/2016 766.04 476582 1703 731352 -254770 443 2023 0.00 54 74 63 0.23
04/30/2016 766.85 479810 1672 733151 -253341 536 2163 0.00 52 79 66 0.28
05/01/2016 767.58 482732 1680 734193 -251461 730 2203 0.00 56 81 69 0.28
05/02/2016 768.16 485063 1326 734935 -249872 840 2016 0.00 60 84 71 0.32
05/03/2016 768.81 487686 1654 736121 -248435 952 2275 0.00 61 83 72 0.20
05/04/2016 769.77 491579 2513 738060 -246481 757 2721 0.00 61 77 68 0.20
05/05/2016 770.64 495127 2201 740393 -245266 1165 2954 0.00 56 65 60 0.10
05/06/2016 771.59 499024 2418 876230 -243725 999 2964 0.04 55 66 58 0.11
05/07/2016 772.35 502156 2101 880035 -242217 937 2516 0.13 55 66 59 18.76
05/08/2016 772.87 504309 1739 883839 -241362 1225 2311 0.00 53 72 62 0.13
05/09/2016 773.44 506676 1162 887643 -380967 1330 2524 0.00 57 77 67 0.19
05/10/2016 774.65 511729 3420 864950 -379719 1141 3689 0.00 56 81 69 2790.00
05/11/2016 775.99 517366 3697 868713 -377886 1159 4002 0.00 59 86 72 0.27
05/12/2016 777.50 523775 3899 873312 -349537 1292 4524 0.00 64 91 77 19.17
05/13/2016 779.41 531965 5436 878527 -346562 787 4917 0.00 56 85 71 0.35
05/14/2016 781.03 538986 4804 883596 -- 1301 4842 0.00 52 76 65 0.33
05/15/2016 782.48 545327 4192 887842 -342515 1149 4347 0.00 54 78 66 0.31
05/16/2016 783.59 550218 2949 891176 -340958 1327 3793 0.00 58 82 70 0.36
05/17/2016 784.53 554384 2657 853984 -341218 1442 3543 0.00 -99 88 66 26.59
05/18/2016 785.47 558618 2583 857304 -338654 1582 3717 0.00 65 91 77 0.00
05/19/2016 786.50 563191 2957 860935 -297744 1616 3922 0.00 -99 82 64 19.32
05/20/2016 787.50 567700 3516 863491 -295791 1424 3698 0.00 51 66 58 0.26
05/21/2016 788.01 570010 1585 863844 -293834 1292 2456 0.00 49 68 57 19.08
05/22/2016 788.25 571099 862 863451 -292352 1437 1986 0.00 49 70 60 0.25
05/23/2016 788.53 572373 955 862907 -290534 1248 1891 0.00 50 72 61 19.06
05/24/2016 -- -- -- -- -- -- -- -- -- -- -- --

Later | Latest

Warning! This data is preliminary and subject to revision.

Show EXC Map | Plot EXC Data | 1 Month EXC Data | Real-Time EXC Data | EXC Info